Hillsboro, OH

1:42 PM EDT on March 26, 2017 (GMT -0400)
Hillsboro | | Change Station

Elev 1102 ft 39.21 °N, 83.60 °W | Updated 6 seconds ago

Rain
Rain
57.4 °F
Feels Like 57.4 °F
N
3.5
Wind Variable Wind from SSE
Gusts 3.5 mph

Today
High -- | Low -- °F
--% Chance of Precip.
Yesterday
High -- | Low -- °F
Precip. -- in
Pressure 29.99 in
Visibility 2.0 miles
Clouds Scattered Clouds 800 ft
Mostly Cloudy 4600 ft
Overcast 7000 ft
Dew Point 55 °F
Humidity 92%
Rainfall 0.18 in
Snow Depth Not available.
7:27 AM 7:52 PM
Waning Crescent, 3% visible
SPECI KILN 261727Z AUTO 20010KT 2SM +RA BR SCT008 BKN046 OVC070 13/13 A2999 RMK AO2 P0009 T01330128
Pressure 29.99 in
Visibility 2.0 miles
Clouds Scattered Clouds 800 ft
Mostly Cloudy 4600 ft
Overcast 7000 ft
Dew Point 55 °F
Humidity 92%
Rainfall 0.18 in
Snow Depth Not available.
7:27 AM 7:52 PM
Waning Crescent, 3% visible
SPECI KILN 261727Z AUTO 20010KT 2SM +RA BR SCT008 BKN046 OVC070 13/13 A2999 RMK AO2 P0009 T01330128

Get Severe Weather Alerts

Thanks for signing up!

Be on the lookout for a verification email in your inbox.

You'll start receiving the daily forecast at 8 AM.

×

10-Day Weather Forecast

Almanac

Astronomy

Mar. 26, 2017 Rise Set
Actual Time
Civil Twilight
Nautical Twilight
Astronomical Twilight
Moon
Length of Visible Light
Length of Day
Tomorrow will be .
, % of the Moon is Illuminated

Today's Extremes

State Highs State Lows

Community

WunderPhotos

Upload Photos

1,962,540 photos uploaded!

WunderBlog® & News

Nearby

Air Quality

  Air Quality AQ Index Pollutant
Not available.

Snow Depth

Station Depth Elevation

Earthquake Activity

City Distance Mag. Time & Date
Minimum magnitude displayed is 2.5.

Earthquake Activity

City Distance Mag. Time & Date
Minimum magnitude displayed is 2.5.

Coastal Water Temperatures

Place Temperature

Stations

Nearby Weather Stations

Station Location Temp. Windchill Dew Point Humidity Wind Precip. Elev Updated Type
                   

Watches & Warnings

There are currently no watches in effect.